RJCO(METAR)
12/16 16:00
METAR RJCO 160700Z 32011KT 9999 FEW010 SCT025 BKN050 M02/M08 Q1008
RMK 1ST010 3CU025 5CU050 A2979=
戻る
トップページへ戻る
IMOC Co,.Ltd.